• Join FlightAware (Why Join?)
  • Login
  • US Flag 
03:14AM EDT


 

Airport Tracker/Info


-or-


 

Live Flight TrackerFlight Track Log ✈ CTL311 ✈ 01-Jul-2013 ✈ KMDW - KBMI

Flight Track Log - Related Links

Times and Time Zones

All times are in EDT time to prevent confusion due to time zone crossing. See the CTL311 flight status page for this flight to view local times or setup timezone preferences in your user account.

Time Position Orientation Groundspeed Altitude Reporting Facility
EDT Latitude Longitude Course Direction KTS MPH feet Rate Location/Type
09:33PM 41.7667 -87.7167 192° South 123 142 2,000  Level Chicago TRACON
09:34PM 41.7500 -87.6833 124° Southeast 133 153 2,900 900 Climbing Chicago TRACON
09:35PM 41.7000 -87.7000 194° South 169 194 3,800 720 Climbing Chicago TRACON
09:36PM 41.6519 -87.7492 217° Southwest 172 198 4,700 600 Climbing Chicago Center
09:37PM 41.6158 -87.7889 219° Southwest 171 197 5,300 540 Climbing Chicago Center
09:38PM 41.5424 -87.8260 192° South  Level FlightAware Approximate
09:38PM 41.5778 -87.8328 221° Southwest 175 201 5,900  Level Chicago Center
09:39PM 41.5258 -87.8847 217° Southwest 189 217 6,000  Climbing Chicago Center
09:40PM 41.4800 -87.9311 217° Southwest 200 230 6,000  Level Chicago Center
09:41PM 41.4350 -87.9739 215° Southwest 200 230 6,000  Level Chicago Center
09:42PM 41.3894 -88.0200 217° Southwest 199 229 6,100  Climbing Chicago Center
09:43PM 41.3436 -88.0642 216° Southwest 199 229 6,000  Descending Chicago Center
09:44PM 41.2994 -88.1100 218° Southwest 201 231 6,100  Climbing Chicago Center
09:45PM 41.2556 -88.1553 218° Southwest 200 230 6,000 -60 Descending Chicago Center
09:46PM 41.2114 -88.2008 218° Southwest 201 231 6,000  Level Chicago Center
09:47PM 41.1675 -88.2447 217° Southwest 200 230 6,000  Level Chicago Center
09:48PM 41.1147 -88.2967 217° Southwest 199 229 6,000  Level Chicago Center
09:49PM 41.0700 -88.3403 216° Southwest 199 229 6,100  Climbing Chicago Center
09:50PM 41.0250 -88.3831 216° Southwest 200 230 6,100 -120 Level Chicago Center
09:51PM 40.9789 -88.4225 213° Southwest 199 229 5,900 -120 Descending Chicago Center
09:53PM 40.9350 -88.4672 218° Southwest 200 230 5,900  Level Chicago Center
09:54PM 40.8897 -88.5111 216° Southwest 202 232 6,000  Climbing Chicago Center
09:55PM 40.8458 -88.5556 217° Southwest 201 231 6,000 -300 Level Chicago Center
09:56PM 40.7917 -88.6086 217° Southwest 201 231 5,500 -780 Descending Chicago Center
09:57PM 40.7400 -88.6558 215° Southwest 219 252 4,500 -720 Descending Chicago Center
09:58PM 40.6900 -88.6989 213° Southwest 219 252 4,100 -420 Descending Chicago Center
09:59PM 40.6447 -88.7428 216° Southwest 208 239 3,700 -540 Descending Chicago Center
10:00PM 40.5978 -88.7867 215° Southwest 207 238 3,000 -720 Descending Chicago Center
10:01PM 40.5489 -88.8275 212° Southwest 208 239 2,300 -540 Descending Chicago Center
10:02PM 40.5008 -88.8669 212° Southwest 199 229 1,900 -480 Descending Chicago Center
10:03PM 40.4733 -88.8983 221° Southwest 182 209 1,400 -540 Descending Chicago Center
10:05PM 40.4667 -88.9000 201° Southwest  Level FlightAware Approximate
10:12PM 40.4771 -88.9159 201° Southwest  Level Estimated
10:13PM 40.4771 -88.9159 201° Southwest  Level Estimated